sensor_id;sensor_type;location;lat;lon;timestamp;P1;durP1;ratioP1;P2;durP2;ratioP2
69906;SDS011;57190;47.918;8.112;2023-06-22T00:00:52;6.82;;;4.85;;
69906;SDS011;57190;47.918;8.112;2023-06-22T00:03:18;8.50;;;5.03;;
69906;SDS011;57190;47.918;8.112;2023-06-22T00:05:46;5.47;;;4.70;;
69906;SDS011;57190;47.918;8.112;2023-06-22T00:08:12;6.82;;;4.72;;
69906;SDS011;57190;47.918;8.112;2023-06-22T00:10:37;5.57;;;4.85;;
69906;SDS011;57190;47.918;8.112;2023-06-22T00:13:03;5.32;;;4.82;;
69906;SDS011;57190;47.918;8.112;2023-06-22T00:15:29;4.88;;;4.32;;
69906;SDS011;57190;47.918;8.112;2023-06-22T00:17:55;7.78;;;5.03;;
69906;SDS011;57190;47.918;8.112;2023-06-22T00:20:22;4.75;;;4.03;;
69906;SDS011;57190;47.918;8.112;2023-06-22T00:22:48;9.00;;;4.63;;
69906;SDS011;57190;47.918;8.112;2023-06-22T00:25:13;5.72;;;4.32;;
69906;SDS011;57190;47.918;8.112;2023-06-22T00:27:39;6.70;;;4.60;;
69906;SDS011;57190;47.918;8.112;2023-06-22T00:30:04;4.63;;;4.20;;
69906;SDS011;57190;47.918;8.112;2023-06-22T00:32:30;6.55;;;5.10;;
69906;SDS011;57190;47.918;8.112;2023-06-22T00:34:56;5.97;;;4.35;;
69906;SDS011;57190;47.918;8.112;2023-06-22T00:37:21;5.57;;;3.75;;
69906;SDS011;57190;47.918;8.112;2023-06-22T00:39:50;5.35;;;4.30;;
69906;SDS011;57190;47.918;8.112;2023-06-22T00:42:16;6.15;;;4.57;;
69906;SDS011;57190;47.918;8.112;2023-06-22T00:44:42;4.72;;;4.20;;
69906;SDS011;57190;47.918;8.112;2023-06-22T00:47:07;6.55;;;4.25;;
69906;SDS011;57190;47.918;8.112;2023-06-22T00:49:32;6.35;;;4.13;;
69906;SDS011;57190;47.918;8.112;2023-06-22T00:51:58;7.40;;;4.53;;
69906;SDS011;57190;47.918;8.112;2023-06-22T00:54:24;5.55;;;4.28;;
69906;SDS011;57190;47.918;8.112;2023-06-22T00:56:51;5.20;;;4.70;;
69906;SDS011;57190;47.918;8.112;2023-06-22T00:59:20;6.03;;;4.68;;
69906;SDS011;57190;47.918;8.112;2023-06-22T01:01:46;4.57;;;4.18;;
69906;SDS011;57190;47.918;8.112;2023-06-22T01:04:11;6.85;;;4.63;;
69906;SDS011;57190;47.918;8.112;2023-06-22T01:06:50;6.10;;;4.45;;
69906;SDS011;57190;47.918;8.112;2023-06-22T01:09:31;6.18;;;4.43;;
69906;SDS011;57190;47.918;8.112;2023-06-22T01:12:01;7.05;;;4.40;;
69906;SDS011;57190;47.918;8.112;2023-06-22T01:14:35;6.60;;;4.63;;
69906;SDS011;57190;47.918;8.112;2023-06-22T01:17:08;4.93;;;4.43;;
69906;SDS011;57190;47.918;8.112;2023-06-22T01:19:35;5.43;;;4.80;;
69906;SDS011;57190;47.918;8.112;2023-06-22T01:22:09;8.00;;;3.95;;
69906;SDS011;57190;47.918;8.112;2023-06-22T01:30:20;7.50;;;4.28;;
69906;SDS011;57190;47.918;8.112;2023-06-22T01:32:50;5.68;;;4.43;;
69906;SDS011;57190;47.918;8.112;2023-06-22T01:35:17;9.48;;;4.50;;
69906;SDS011;57190;47.918;8.112;2023-06-22T01:37:45;4.97;;;4.47;;
69906;SDS011;57190;47.918;8.112;2023-06-22T01:40:12;5.65;;;4.07;;
69906;SDS011;57190;47.918;8.112;2023-06-22T01:42:38;6.38;;;4.18;;
69906;SDS011;57190;47.918;8.112;2023-06-22T01:45:04;8.55;;;4.90;;
69906;SDS011;57190;47.918;8.112;2023-06-22T01:47:32;6.60;;;4.15;;
69906;SDS011;57190;47.918;8.112;2023-06-22T01:49:58;7.28;;;4.22;;
69906;SDS011;57190;47.918;8.112;2023-06-22T01:52:24;5.70;;;4.68;;
69906;SDS011;57190;47.918;8.112;2023-06-22T01:54:50;6.68;;;4.55;;
69906;SDS011;57190;47.918;8.112;2023-06-22T01:57:15;5.97;;;3.85;;
69906;SDS011;57190;47.918;8.112;2023-06-22T02:02:16;6.78;;;4.45;;
69906;SDS011;57190;47.918;8.112;2023-06-22T02:04:52;7.93;;;4.57;;
69906;SDS011;57190;47.918;8.112;2023-06-22T02:07:23;6.45;;;4.20;;
69906;SDS011;57190;47.918;8.112;2023-06-22T02:09:51;7.13;;;4.57;;
69906;SDS011;57190;47.918;8.112;2023-06-22T02:12:21;5.97;;;4.95;;
69906;SDS011;57190;47.918;8.112;2023-06-22T02:14:49;8.13;;;5.22;;
69906;SDS011;57190;47.918;8.112;2023-06-22T02:17:17;7.40;;;5.03;;
69906;SDS011;57190;47.918;8.112;2023-06-22T02:19:43;6.65;;;4.25;;
69906;SDS011;57190;47.918;8.112;2023-06-22T02:22:09;6.07;;;4.45;;
69906;SDS011;57190;47.918;8.112;2023-06-22T02:24:35;7.72;;;4.85;;
69906;SDS011;57190;47.918;8.112;2023-06-22T02:27:01;5.80;;;5.00;;
69906;SDS011;57190;47.918;8.112;2023-06-22T02:29:27;5.82;;;5.30;;
69906;SDS011;57190;47.918;8.112;2023-06-22T02:31:53;6.30;;;5.40;;
69906;SDS011;57190;47.918;8.112;2023-06-22T02:34:19;4.95;;;4.45;;
69906;SDS011;57190;47.918;8.112;2023-06-22T02:36:46;5.88;;;4.55;;
69906;SDS011;57190;47.918;8.112;2023-06-22T02:39:23;5.95;;;4.53;;
69906;SDS011;57190;47.918;8.112;2023-06-22T02:41:50;5.68;;;4.88;;
69906;SDS011;57190;47.918;8.112;2023-06-22T02:44:16;5.45;;;4.38;;
69906;SDS011;57190;47.918;8.112;2023-06-22T02:46:42;8.07;;;5.07;;
69906;SDS011;57190;47.918;8.112;2023-06-22T02:49:08;5.45;;;4.40;;
69906;SDS011;57190;47.918;8.112;2023-06-22T02:51:34;8.40;;;4.90;;
69906;SDS011;57190;47.918;8.112;2023-06-22T02:54:00;5.43;;;4.32;;
69906;SDS011;57190;47.918;8.112;2023-06-22T02:56:28;5.70;;;4.90;;
69906;SDS011;57190;47.918;8.112;2023-06-22T02:58:55;7.28;;;4.68;;
69906;SDS011;57190;47.918;8.112;2023-06-22T03:01:25;7.65;;;4.38;;
69906;SDS011;57190;47.918;8.112;2023-06-22T03:03:52;8.30;;;4.25;;
69906;SDS011;57190;47.918;8.112;2023-06-22T03:06:18;7.80;;;4.40;;
69906;SDS011;57190;47.918;8.112;2023-06-22T03:08:48;5.57;;;4.55;;
69906;SDS011;57190;47.918;8.112;2023-06-22T03:11:14;5.65;;;4.20;;
69906;SDS011;57190;47.918;8.112;2023-06-22T03:13:40;10.10;;;4.72;;
69906;SDS011;57190;47.918;8.112;2023-06-22T03:16:05;5.72;;;4.25;;
69906;SDS011;57190;47.918;8.112;2023-06-22T03:18:31;4.32;;;3.92;;
69906;SDS011;57190;47.918;8.112;2023-06-22T03:20:56;6.25;;;4.35;;
69906;SDS011;57190;47.918;8.112;2023-06-22T03:23:22;4.95;;;4.07;;
69906;SDS011;57190;47.918;8.112;2023-06-22T03:25:47;6.20;;;4.97;;
69906;SDS011;57190;47.918;8.112;2023-06-22T03:28:12;6.93;;;3.92;;
69906;SDS011;57190;47.918;8.112;2023-06-22T03:30:38;6.68;;;4.10;;
69906;SDS011;57190;47.918;8.112;2023-06-22T03:33:03;4.97;;;4.43;;
69906;SDS011;57190;47.918;8.112;2023-06-22T03:35:29;7.15;;;4.55;;
69906;SDS011;57190;47.918;8.112;2023-06-22T03:37:55;5.90;;;4.95;;
69906;SDS011;57190;47.918;8.112;2023-06-22T03:40:20;5.57;;;4.53;;
69906;SDS011;57190;47.918;8.112;2023-06-22T03:42:46;7.97;;;4.47;;
69906;SDS011;57190;47.918;8.112;2023-06-22T03:45:11;5.95;;;4.55;;
69906;SDS011;57190;47.918;8.112;2023-06-22T03:47:37;6.60;;;4.40;;
69906;SDS011;57190;47.918;8.112;2023-06-22T03:50:02;5.55;;;4.40;;
69906;SDS011;57190;47.918;8.112;2023-06-22T03:52:29;6.82;;;4.18;;
69906;SDS011;57190;47.918;8.112;2023-06-22T03:54:55;6.45;;;4.10;;
69906;SDS011;57190;47.918;8.112;2023-06-22T03:57:21;5.30;;;4.63;;
69906;SDS011;57190;47.918;8.112;2023-06-22T03:59:46;5.10;;;4.03;;
69906;SDS011;57190;47.918;8.112;2023-06-22T04:02:12;8.02;;;4.97;;
69906;SDS011;57190;47.918;8.112;2023-06-22T04:04:37;7.85;;;5.38;;
69906;SDS011;57190;47.918;8.112;2023-06-22T04:07:04;6.75;;;4.43;;
69906;SDS011;57190;47.918;8.112;2023-06-22T04:09:30;6.00;;;4.28;;
69906;SDS011;57190;47.918;8.112;2023-06-22T04:11:56;6.68;;;5.20;;
69906;SDS011;57190;47.918;8.112;2023-06-22T04:14:21;6.32;;;4.57;;
69906;SDS011;57190;47.918;8.112;2023-06-22T04:16:47;6.57;;;4.70;;
69906;SDS011;57190;47.918;8.112;2023-06-22T04:19:12;6.60;;;4.50;;
69906;SDS011;57190;47.918;8.112;2023-06-22T04:21:42;5.45;;;4.63;;
69906;SDS011;57190;47.918;8.112;2023-06-22T04:24:09;5.15;;;4.55;;
69906;SDS011;57190;47.918;8.112;2023-06-22T04:26:35;7.55;;;4.93;;
69906;SDS011;57190;47.918;8.112;2023-06-22T04:29:05;6.63;;;4.78;;
69906;SDS011;57190;47.918;8.112;2023-06-22T04:31:34;5.72;;;4.97;;
69906;SDS011;57190;47.918;8.112;2023-06-22T04:34:02;7.05;;;5.03;;
69906;SDS011;57190;47.918;8.112;2023-06-22T04:36:39;5.72;;;4.47;;
69906;SDS011;57190;47.918;8.112;2023-06-22T04:39:11;6.55;;;5.10;;
69906;SDS011;57190;47.918;8.112;2023-06-22T04:41:37;5.90;;;4.85;;
69906;SDS011;57190;47.918;8.112;2023-06-22T04:44:10;6.85;;;5.32;;
69906;SDS011;57190;47.918;8.112;2023-06-22T04:46:54;4.95;;;3.97;;
69906;SDS011;57190;47.918;8.112;2023-06-22T04:49:25;6.03;;;4.70;;
69906;SDS011;57190;47.918;8.112;2023-06-22T04:51:57;4.07;;;3.55;;
69906;SDS011;57190;47.918;8.112;2023-06-22T04:54:24;5.55;;;4.70;;
69906;SDS011;57190;47.918;8.112;2023-06-22T04:56:50;4.82;;;4.25;;
69906;SDS011;57190;47.918;8.112;2023-06-22T04:59:25;6.28;;;4.35;;
69906;SDS011;57190;47.918;8.112;2023-06-22T05:01:53;5.32;;;4.22;;
69906;SDS011;57190;47.918;8.112;2023-06-22T05:04:20;5.47;;;4.90;;
69906;SDS011;57190;47.918;8.112;2023-06-22T05:06:45;7.65;;;5.28;;
69906;SDS011;57190;47.918;8.112;2023-06-22T05:09:11;4.68;;;4.18;;
69906;SDS011;57190;47.918;8.112;2023-06-22T05:11:37;6.55;;;4.65;;
69906;SDS011;57190;47.918;8.112;2023-06-22T05:14:03;5.65;;;4.90;;
69906;SDS011;57190;47.918;8.112;2023-06-22T05:16:28;5.85;;;4.90;;
69906;SDS011;57190;47.918;8.112;2023-06-22T05:18:54;4.65;;;4.25;;
69906;SDS011;57190;47.918;8.112;2023-06-22T05:21:24;6.05;;;4.82;;
69906;SDS011;57190;47.918;8.112;2023-06-22T05:23:51;6.60;;;4.97;;
69906;SDS011;57190;47.918;8.112;2023-06-22T05:26:21;5.53;;;4.53;;
69906;SDS011;57190;47.918;8.112;2023-06-22T05:28:47;5.22;;;4.72;;
69906;SDS011;57190;47.918;8.112;2023-06-22T05:31:13;5.97;;;4.40;;
69906;SDS011;57190;47.918;8.112;2023-06-22T05:33:40;7.07;;;4.40;;
69906;SDS011;57190;47.918;8.112;2023-06-22T05:39:28;6.18;;;4.70;;
69906;SDS011;57190;47.918;8.112;2023-06-22T05:41:54;5.60;;;4.97;;
69906;SDS011;57190;47.918;8.112;2023-06-22T05:44:19;7.53;;;4.72;;
69906;SDS011;57190;47.918;8.112;2023-06-22T05:46:45;5.85;;;4.80;;
69906;SDS011;57190;47.918;8.112;2023-06-22T05:49:14;6.00;;;5.07;;
69906;SDS011;57190;47.918;8.112;2023-06-22T05:51:41;8.38;;;5.03;;
69906;SDS011;57190;47.918;8.112;2023-06-22T05:54:07;5.50;;;4.80;;
69906;SDS011;57190;47.918;8.112;2023-06-22T05:56:35;8.07;;;5.55;;
69906;SDS011;57190;47.918;8.112;2023-06-22T05:59:01;7.65;;;5.38;;
69906;SDS011;57190;47.918;8.112;2023-06-22T06:01:26;7.93;;;5.10;;
69906;SDS011;57190;47.918;8.112;2023-06-22T06:03:52;6.72;;;5.72;;
69906;SDS011;57190;47.918;8.112;2023-06-22T06:06:18;6.50;;;5.70;;
69906;SDS011;57190;47.918;8.112;2023-06-22T06:08:46;8.15;;;5.07;;
69906;SDS011;57190;47.918;8.112;2023-06-22T06:11:12;7.03;;;5.20;;
69906;SDS011;57190;47.918;8.112;2023-06-22T06:13:37;6.82;;;5.05;;
69906;SDS011;57190;47.918;8.112;2023-06-22T06:16:03;7.68;;;5.53;;
69906;SDS011;57190;47.918;8.112;2023-06-22T06:18:28;7.25;;;5.57;;
69906;SDS011;57190;47.918;8.112;2023-06-22T06:20:54;8.80;;;5.72;;
69906;SDS011;57190;47.918;8.112;2023-06-22T06:23:19;8.95;;;5.75;;
69906;SDS011;57190;47.918;8.112;2023-06-22T06:25:45;5.93;;;5.35;;
69906;SDS011;57190;47.918;8.112;2023-06-22T06:28:10;5.72;;;5.15;;
69906;SDS011;57190;47.918;8.112;2023-06-22T06:30:36;6.40;;;5.78;;
69906;SDS011;57190;47.918;8.112;2023-06-22T06:33:02;6.57;;;5.90;;
69906;SDS011;57190;47.918;8.112;2023-06-22T06:35:29;6.97;;;5.55;;
69906;SDS011;57190;47.918;8.112;2023-06-22T06:37:55;6.28;;;5.40;;
69906;SDS011;57190;47.918;8.112;2023-06-22T06:40:20;5.85;;;5.28;;
69906;SDS011;57190;47.918;8.112;2023-06-22T06:42:47;5.20;;;4.72;;
69906;SDS011;57190;47.918;8.112;2023-06-22T06:45:18;7.07;;;5.25;;
69906;SDS011;57190;47.918;8.112;2023-06-22T06:47:45;9.25;;;5.38;;
69906;SDS011;57190;47.918;8.112;2023-06-22T06:50:12;6.88;;;4.90;;
69906;SDS011;57190;47.918;8.112;2023-06-22T06:52:38;7.80;;;4.47;;
69906;SDS011;57190;47.918;8.112;2023-06-22T06:55:03;5.63;;;4.75;;
69906;SDS011;57190;47.918;8.112;2023-06-22T06:57:32;5.30;;;4.80;;
69906;SDS011;57190;47.918;8.112;2023-06-22T06:59:58;6.57;;;4.65;;
69906;SDS011;57190;47.918;8.112;2023-06-22T07:02:25;5.90;;;4.75;;
69906;SDS011;57190;47.918;8.112;2023-06-22T07:04:52;6.35;;;5.30;;
69906;SDS011;57190;47.918;8.112;2023-06-22T07:07:20;5.68;;;5.10;;
69906;SDS011;57190;47.918;8.112;2023-06-22T07:09:46;6.20;;;5.60;;
69906;SDS011;57190;47.918;8.112;2023-06-22T07:12:11;6.95;;;5.00;;
69906;SDS011;57190;47.918;8.112;2023-06-22T07:14:41;7.70;;;5.00;;
69906;SDS011;57190;47.918;8.112;2023-06-22T07:17:06;7.05;;;5.07;;
69906;SDS011;57190;47.918;8.112;2023-06-22T07:19:32;5.15;;;4.40;;
69906;SDS011;57190;47.918;8.112;2023-06-22T07:21:58;7.50;;;5.05;;
69906;SDS011;57190;47.918;8.112;2023-06-22T07:24:24;6.88;;;4.32;;
69906;SDS011;57190;47.918;8.112;2023-06-22T07:26:49;4.90;;;4.50;;
69906;SDS011;57190;47.918;8.112;2023-06-22T07:29:19;6.63;;;4.15;;
69906;SDS011;57190;47.918;8.112;2023-06-22T07:31:46;5.78;;;4.43;;
69906;SDS011;57190;47.918;8.112;2023-06-22T07:34:12;5.25;;;4.65;;
69906;SDS011;57190;47.918;8.112;2023-06-22T07:36:38;5.30;;;4.15;;
69906;SDS011;57190;47.918;8.112;2023-06-22T07:39:03;4.95;;;4.07;;
69906;SDS011;57190;47.918;8.112;2023-06-22T07:41:29;6.47;;;4.35;;
69906;SDS011;57190;47.918;8.112;2023-06-22T07:43:55;5.32;;;4.82;;
69906;SDS011;57190;47.918;8.112;2023-06-22T07:46:21;5.68;;;4.80;;
69906;SDS011;57190;47.918;8.112;2023-06-22T07:48:47;5.53;;;4.55;;
69906;SDS011;57190;47.918;8.112;2023-06-22T07:51:12;6.40;;;4.15;;
69906;SDS011;57190;47.918;8.112;2023-06-22T07:53:39;8.60;;;4.93;;
69906;SDS011;57190;47.918;8.112;2023-06-22T07:56:06;4.00;;;3.60;;
69906;SDS011;57190;47.918;8.112;2023-06-22T07:58:32;7.55;;;5.15;;
69906;SDS011;57190;47.918;8.112;2023-06-22T08:00:57;5.75;;;4.28;;
69906;SDS011;57190;47.918;8.112;2023-06-22T08:03:23;8.18;;;4.28;;
69906;SDS011;57190;47.918;8.112;2023-06-22T08:05:48;6.70;;;4.30;;
69906;SDS011;57190;47.918;8.112;2023-06-22T08:08:14;5.00;;;3.55;;
69906;SDS011;57190;47.918;8.112;2023-06-22T08:10:40;5.07;;;3.72;;
69906;SDS011;57190;47.918;8.112;2023-06-22T08:13:07;8.25;;;4.72;;
69906;SDS011;57190;47.918;8.112;2023-06-22T08:15:33;8.48;;;4.47;;
69906;SDS011;57190;47.918;8.112;2023-06-22T08:17:58;7.47;;;4.22;;
69906;SDS011;57190;47.918;8.112;2023-06-22T08:20:25;7.20;;;3.60;;
69906;SDS011;57190;47.918;8.112;2023-06-22T08:22:53;7.00;;;4.50;;
69906;SDS011;57190;47.918;8.112;2023-06-22T08:25:19;6.93;;;3.63;;
69906;SDS011;57190;47.918;8.112;2023-06-22T08:27:46;6.85;;;3.63;;
69906;SDS011;57190;47.918;8.112;2023-06-22T08:30:12;8.32;;;4.00;;
69906;SDS011;57190;47.918;8.112;2023-06-22T08:32:38;6.32;;;4.13;;
69906;SDS011;57190;47.918;8.112;2023-06-22T08:35:04;8.93;;;4.00;;
69906;SDS011;57190;47.918;8.112;2023-06-22T08:37:32;10.98;;;4.15;;
69906;SDS011;57190;47.918;8.112;2023-06-22T08:40:03;8.57;;;4.10;;
69906;SDS011;57190;47.918;8.112;2023-06-22T08:42:34;7.03;;;3.70;;
69906;SDS011;57190;47.918;8.112;2023-06-22T08:45:03;8.63;;;3.60;;
69906;SDS011;57190;47.918;8.112;2023-06-22T08:47:29;5.95;;;3.95;;
69906;SDS011;57190;47.918;8.112;2023-06-22T08:49:55;5.00;;;3.53;;
69906;SDS011;57190;47.918;8.112;2023-06-22T08:52:21;4.80;;;3.42;;
69906;SDS011;57190;47.918;8.112;2023-06-22T08:54:48;8.82;;;4.05;;
69906;SDS011;57190;47.918;8.112;2023-06-22T08:57:14;8.82;;;4.05;;
69906;SDS011;57190;47.918;8.112;2023-06-22T08:59:39;6.35;;;3.72;;
69906;SDS011;57190;47.918;8.112;2023-06-22T09:02:05;8.00;;;3.97;;
69906;SDS011;57190;47.918;8.112;2023-06-22T09:04:31;9.20;;;3.55;;
69906;SDS011;57190;47.918;8.112;2023-06-22T09:07:00;6.28;;;3.42;;
69906;SDS011;57190;47.918;8.112;2023-06-22T09:09:26;6.63;;;3.55;;
69906;SDS011;57190;47.918;8.112;2023-06-22T09:11:52;9.73;;;3.80;;
69906;SDS011;57190;47.918;8.112;2023-06-22T09:14:17;7.90;;;4.03;;
69906;SDS011;57190;47.918;8.112;2023-06-22T09:16:44;8.32;;;3.97;;
69906;SDS011;57190;47.918;8.112;2023-06-22T09:19:10;5.40;;;3.42;;
69906;SDS011;57190;47.918;8.112;2023-06-22T09:21:35;7.47;;;3.25;;
69906;SDS011;57190;47.918;8.112;2023-06-22T09:24:02;5.75;;;3.72;;
69906;SDS011;57190;47.918;8.112;2023-06-22T09:26:29;9.75;;;3.40;;
69906;SDS011;57190;47.918;8.112;2023-06-22T09:28:56;8.00;;;3.35;;
69906;SDS011;57190;47.918;8.112;2023-06-22T09:31:26;7.03;;;3.50;;
69906;SDS011;57190;47.918;8.112;2023-06-22T09:33:52;8.02;;;3.75;;
69906;SDS011;57190;47.918;8.112;2023-06-22T09:36:22;8.55;;;3.50;;
69906;SDS011;57190;47.918;8.112;2023-06-22T09:38:49;6.28;;;3.22;;
69906;SDS011;57190;47.918;8.112;2023-06-22T09:41:24;9.07;;;3.97;;
69906;SDS011;57190;47.918;8.112;2023-06-22T09:43:51;6.43;;;3.78;;
69906;SDS011;57190;47.918;8.112;2023-06-22T09:46:17;7.65;;;3.10;;
69906;SDS011;57190;47.918;8.112;2023-06-22T09:48:54;11.98;;;4.28;;
69906;SDS011;57190;47.918;8.112;2023-06-22T09:51:21;8.13;;;3.17;;
69906;SDS011;57190;47.918;8.112;2023-06-22T09:53:52;8.02;;;3.42;;
69906;SDS011;57190;47.918;8.112;2023-06-22T09:56:22;7.10;;;3.05;;
69906;SDS011;57190;47.918;8.112;2023-06-22T09:58:53;8.43;;;3.03;;
69906;SDS011;57190;47.918;8.112;2023-06-22T10:01:21;6.70;;;2.75;;
69906;SDS011;57190;47.918;8.112;2023-06-22T10:03:51;6.53;;;3.13;;
69906;SDS011;57190;47.918;8.112;2023-06-22T10:06:21;6.13;;;2.70;;
69906;SDS011;57190;47.918;8.112;2023-06-22T10:08:47;4.88;;;2.55;;
69906;SDS011;57190;47.918;8.112;2023-06-22T10:11:16;6.32;;;2.63;;
69906;SDS011;57190;47.918;8.112;2023-06-22T10:13:41;7.60;;;2.72;;
69906;SDS011;57190;47.918;8.112;2023-06-22T10:16:09;4.47;;;2.55;;
69906;SDS011;57190;47.918;8.112;2023-06-22T10:18:35;7.22;;;2.22;;
69906;SDS011;57190;47.918;8.112;2023-06-22T10:21:01;9.15;;;3.17;;
69906;SDS011;57190;47.918;8.112;2023-06-22T10:23:27;5.57;;;2.60;;
69906;SDS011;57190;47.918;8.112;2023-06-22T10:25:57;7.20;;;2.38;;
69906;SDS011;57190;47.918;8.112;2023-06-22T10:28:23;4.60;;;2.70;;
69906;SDS011;57190;47.918;8.112;2023-06-22T10:30:48;5.82;;;2.58;;
69906;SDS011;57190;47.918;8.112;2023-06-22T10:33:14;10.25;;;2.80;;
69906;SDS011;57190;47.918;8.112;2023-06-22T10:35:39;4.13;;;2.50;;
69906;SDS011;57190;47.918;8.112;2023-06-22T10:38:05;4.28;;;2.40;;
69906;SDS011;57190;47.918;8.112;2023-06-22T10:40:32;4.55;;;2.75;;
69906;SDS011;57190;47.918;8.112;2023-06-22T10:42:57;7.95;;;2.55;;
69906;SDS011;57190;47.918;8.112;2023-06-22T10:45:23;7.55;;;2.60;;
69906;SDS011;57190;47.918;8.112;2023-06-22T10:47:49;5.93;;;2.75;;
69906;SDS011;57190;47.918;8.112;2023-06-22T10:50:14;4.95;;;2.78;;
69906;SDS011;57190;47.918;8.112;2023-06-22T10:52:41;7.75;;;3.67;;
69906;SDS011;57190;47.918;8.112;2023-06-22T10:55:07;3.40;;;2.03;;
69906;SDS011;57190;47.918;8.112;2023-06-22T10:57:34;6.43;;;2.30;;
69906;SDS011;57190;47.918;8.112;2023-06-22T10:59:59;6.13;;;2.70;;
69906;SDS011;57190;47.918;8.112;2023-06-22T11:02:25;7.70;;;2.58;;
69906;SDS011;57190;47.918;8.112;2023-06-22T11:04:53;6.70;;;2.90;;
69906;SDS011;57190;47.918;8.112;2023-06-22T11:07:18;8.13;;;2.92;;
69906;SDS011;57190;47.918;8.112;2023-06-22T11:09:44;5.03;;;2.85;;
69906;SDS011;57190;47.918;8.112;2023-06-22T11:12:09;4.45;;;2.72;;
69906;SDS011;57190;47.918;8.112;2023-06-22T11:14:35;4.70;;;2.60;;
69906;SDS011;57190;47.918;8.112;2023-06-22T11:17:00;9.65;;;3.75;;
69906;SDS011;57190;47.918;8.112;2023-06-22T11:19:26;7.03;;;2.85;;
69906;SDS011;57190;47.918;8.112;2023-06-22T11:21:51;6.75;;;2.95;;
69906;SDS011;57190;47.918;8.112;2023-06-22T11:24:17;7.05;;;2.97;;
69906;SDS011;57190;47.918;8.112;2023-06-22T11:26:43;9.80;;;3.63;;
69906;SDS011;57190;47.918;8.112;2023-06-22T11:29:08;7.05;;;3.15;;
69906;SDS011;57190;47.918;8.112;2023-06-22T11:31:34;7.93;;;3.10;;
69906;SDS011;57190;47.918;8.112;2023-06-22T11:34:00;6.10;;;2.95;;
69906;SDS011;57190;47.918;8.112;2023-06-22T11:36:26;5.82;;;3.08;;
69906;SDS011;57190;47.918;8.112;2023-06-22T11:38:52;5.55;;;3.13;;
69906;SDS011;57190;47.918;8.112;2023-06-22T11:41:18;6.30;;;3.08;;
69906;SDS011;57190;47.918;8.112;2023-06-22T11:43:44;7.20;;;3.10;;
69906;SDS011;57190;47.918;8.112;2023-06-22T11:46:09;9.32;;;3.25;;
69906;SDS011;57190;47.918;8.112;2023-06-22T11:48:35;7.55;;;2.90;;
69906;SDS011;57190;47.918;8.112;2023-06-22T11:51:01;7.93;;;3.25;;
69906;SDS011;57190;47.918;8.112;2023-06-22T11:53:28;5.72;;;2.70;;
69906;SDS011;57190;47.918;8.112;2023-06-22T11:55:54;6.55;;;2.97;;
69906;SDS011;57190;47.918;8.112;2023-06-22T11:58:20;6.30;;;3.05;;
69906;SDS011;57190;47.918;8.112;2023-06-22T12:00:47;7.65;;;3.05;;
69906;SDS011;57190;47.918;8.112;2023-06-22T12:03:12;6.65;;;2.75;;
69906;SDS011;57190;47.918;8.112;2023-06-22T12:05:39;7.03;;;3.15;;
69906;SDS011;57190;47.918;8.112;2023-06-22T12:08:05;6.45;;;2.67;;
69906;SDS011;57190;47.918;8.112;2023-06-22T12:10:31;6.35;;;3.10;;
69906;SDS011;57190;47.918;8.112;2023-06-22T12:12:57;5.97;;;3.00;;
69906;SDS011;57190;47.918;8.112;2023-06-22T12:15:24;5.35;;;3.05;;
69906;SDS011;57190;47.918;8.112;2023-06-22T12:17:50;6.57;;;3.60;;
69906;SDS011;57190;47.918;8.112;2023-06-22T12:20:16;6.90;;;3.42;;
69906;SDS011;57190;47.918;8.112;2023-06-22T12:22:41;5.63;;;3.58;;
69906;SDS011;57190;47.918;8.112;2023-06-22T12:25:10;9.43;;;3.28;;
69906;SDS011;57190;47.918;8.112;2023-06-22T12:27:36;5.75;;;3.50;;
69906;SDS011;57190;47.918;8.112;2023-06-22T12:30:02;5.15;;;3.00;;
69906;SDS011;57190;47.918;8.112;2023-06-22T12:32:29;8.48;;;3.25;;
69906;SDS011;57190;47.918;8.112;2023-06-22T12:34:55;9.63;;;3.50;;
69906;SDS011;57190;47.918;8.112;2023-06-22T12:37:21;6.68;;;2.97;;
69906;SDS011;57190;47.918;8.112;2023-06-22T12:39:47;5.13;;;2.75;;
69906;SDS011;57190;47.918;8.112;2023-06-22T12:42:12;7.53;;;3.10;;
69906;SDS011;57190;47.918;8.112;2023-06-22T12:44:38;5.55;;;3.20;;
69906;SDS011;57190;47.918;8.112;2023-06-22T12:47:07;5.05;;;2.72;;
69906;SDS011;57190;47.918;8.112;2023-06-22T12:49:33;6.95;;;3.13;;
69906;SDS011;57190;47.918;8.112;2023-06-22T12:52:00;6.30;;;3.65;;
69906;SDS011;57190;47.918;8.112;2023-06-22T12:54:25;5.93;;;3.42;;
69906;SDS011;57190;47.918;8.112;2023-06-22T12:56:51;6.60;;;3.13;;
69906;SDS011;57190;47.918;8.112;2023-06-22T12:59:16;7.55;;;3.30;;
69906;SDS011;57190;47.918;8.112;2023-06-22T13:01:42;5.70;;;2.92;;
69906;SDS011;57190;47.918;8.112;2023-06-22T13:04:10;7.10;;;3.13;;
69906;SDS011;57190;47.918;8.112;2023-06-22T13:06:38;7.43;;;3.50;;
69906;SDS011;57190;47.918;8.112;2023-06-22T13:09:03;7.15;;;3.85;;
69906;SDS011;57190;47.918;8.112;2023-06-22T13:11:30;3.55;;;2.70;;
69906;SDS011;57190;47.918;8.112;2023-06-22T13:13:55;5.45;;;3.25;;
69906;SDS011;57190;47.918;8.112;2023-06-22T13:16:21;7.28;;;3.45;;
69906;SDS011;57190;47.918;8.112;2023-06-22T13:18:46;5.45;;;3.10;;
69906;SDS011;57190;47.918;8.112;2023-06-22T13:21:12;6.20;;;3.55;;
69906;SDS011;57190;47.918;8.112;2023-06-22T13:23:38;8.73;;;4.25;;
69906;SDS011;57190;47.918;8.112;2023-06-22T13:26:04;7.90;;;4.05;;
69906;SDS011;57190;47.918;8.112;2023-06-22T13:28:29;8.23;;;4.20;;
69906;SDS011;57190;47.918;8.112;2023-06-22T13:30:55;6.53;;;4.85;;
69906;SDS011;57190;47.918;8.112;2023-06-22T13:33:20;7.63;;;5.57;;
69906;SDS011;57190;47.918;8.112;2023-06-22T13:35:46;6.25;;;4.80;;
69906;SDS011;57190;47.918;8.112;2023-06-22T13:38:11;6.35;;;4.82;;
69906;SDS011;57190;47.918;8.112;2023-06-22T13:40:37;5.85;;;4.90;;
69906;SDS011;57190;47.918;8.112;2023-06-22T13:43:03;5.55;;;5.00;;
69906;SDS011;57190;47.918;8.112;2023-06-22T13:45:30;7.20;;;4.90;;
69906;SDS011;57190;47.918;8.112;2023-06-22T13:47:56;9.13;;;5.43;;
69906;SDS011;57190;47.918;8.112;2023-06-22T13:50:21;7.85;;;5.13;;
69906;SDS011;57190;47.918;8.112;2023-06-22T13:52:47;7.90;;;5.25;;
69906;SDS011;57190;47.918;8.112;2023-06-22T13:55:12;4.93;;;4.28;;
69906;SDS011;57190;47.918;8.112;2023-06-22T13:57:39;6.55;;;4.50;;
69906;SDS011;57190;47.918;8.112;2023-06-22T14:00:05;5.90;;;3.88;;
69906;SDS011;57190;47.918;8.112;2023-06-22T14:02:33;6.28;;;3.90;;
69906;SDS011;57190;47.918;8.112;2023-06-22T14:04:59;7.03;;;4.43;;
69906;SDS011;57190;47.918;8.112;2023-06-22T14:07:24;6.55;;;3.80;;
69906;SDS011;57190;47.918;8.112;2023-06-22T14:09:50;6.10;;;3.72;;
69906;SDS011;57190;47.918;8.112;2023-06-22T14:12:16;6.95;;;4.40;;
69906;SDS011;57190;47.918;8.112;2023-06-22T14:14:43;4.70;;;3.55;;
69906;SDS011;57190;47.918;8.112;2023-06-22T14:17:09;6.72;;;4.10;;
69906;SDS011;57190;47.918;8.112;2023-06-22T14:19:35;5.70;;;3.47;;
69906;SDS011;57190;47.918;8.112;2023-06-22T14:22:01;7.65;;;3.75;;
69906;SDS011;57190;47.918;8.112;2023-06-22T14:24:26;6.38;;;3.72;;
69906;SDS011;57190;47.918;8.112;2023-06-22T14:26:52;5.53;;;3.10;;
69906;SDS011;57190;47.918;8.112;2023-06-22T14:29:18;7.22;;;3.17;;
69906;SDS011;57190;47.918;8.112;2023-06-22T14:31:44;4.88;;;3.30;;
69906;SDS011;57190;47.918;8.112;2023-06-22T14:34:11;6.25;;;3.75;;
69906;SDS011;57190;47.918;8.112;2023-06-22T14:36:36;5.70;;;3.47;;
69906;SDS011;57190;47.918;8.112;2023-06-22T14:39:02;5.95;;;3.70;;
69906;SDS011;57190;47.918;8.112;2023-06-22T14:41:27;5.68;;;3.40;;
69906;SDS011;57190;47.918;8.112;2023-06-22T14:43:54;5.22;;;3.53;;
69906;SDS011;57190;47.918;8.112;2023-06-22T14:46:19;7.57;;;3.63;;
69906;SDS011;57190;47.918;8.112;2023-06-22T14:48:45;5.95;;;3.50;;
69906;SDS011;57190;47.918;8.112;2023-06-22T14:51:11;6.03;;;3.33;;
69906;SDS011;57190;47.918;8.112;2023-06-22T14:53:37;8.68;;;3.35;;
69906;SDS011;57190;47.918;8.112;2023-06-22T14:56:03;7.25;;;3.17;;